sensor_id;sensor_type;location;lat;lon;timestamp;P1;durP1;ratioP1;P2;durP2;ratioP2
74833;SDS011;63361;52.384;20.930;2023-02-28T00:01:01;30.77;;;11.90;;
74833;SDS011;63361;52.384;20.930;2023-02-28T00:03:26;22.80;;;9.93;;
74833;SDS011;63361;52.384;20.930;2023-02-28T00:05:51;29.17;;;11.97;;
74833;SDS011;63361;52.384;20.930;2023-02-28T00:08:17;28.30;;;11.32;;
74833;SDS011;63361;52.384;20.930;2023-02-28T00:10:42;27.83;;;10.67;;
74833;SDS011;63361;52.384;20.930;2023-02-28T00:13:07;26.93;;;10.03;;
74833;SDS011;63361;52.384;20.930;2023-02-28T00:15:33;29.70;;;10.63;;
74833;SDS011;63361;52.384;20.930;2023-02-28T00:17:58;31.70;;;12.02;;
74833;SDS011;63361;52.384;20.930;2023-02-28T00:20:24;27.13;;;10.60;;
74833;SDS011;63361;52.384;20.930;2023-02-28T00:22:50;27.50;;;10.30;;
74833;SDS011;63361;52.384;20.930;2023-02-28T00:25:19;29.40;;;10.60;;
74833;SDS011;63361;52.384;20.930;2023-02-28T00:27:47;25.02;;;10.85;;
74833;SDS011;63361;52.384;20.930;2023-02-28T00:30:14;67.47;;;20.25;;
74833;SDS011;63361;52.384;20.930;2023-02-28T00:32:41;316.03;;;61.67;;
74833;SDS011;63361;52.384;20.930;2023-02-28T00:35:07;113.60;;;27.77;;
74833;SDS011;63361;52.384;20.930;2023-02-28T00:37:33;105.05;;;23.40;;
74833;SDS011;63361;52.384;20.930;2023-02-28T00:39:59;75.40;;;18.77;;
74833;SDS011;63361;52.384;20.930;2023-02-28T00:42:24;44.75;;;14.15;;
74833;SDS011;63361;52.384;20.930;2023-02-28T00:44:50;48.97;;;14.53;;
74833;SDS011;63361;52.384;20.930;2023-02-28T00:47:15;33.37;;;11.87;;
74833;SDS011;63361;52.384;20.930;2023-02-28T00:49:41;42.15;;;14.00;;
74833;SDS011;63361;52.384;20.930;2023-02-28T00:52:07;42.67;;;13.13;;
74833;SDS011;63361;52.384;20.930;2023-02-28T00:54:32;30.53;;;13.20;;
74833;SDS011;63361;52.384;20.930;2023-02-28T00:56:59;31.53;;;11.40;;
74833;SDS011;63361;52.384;20.930;2023-02-28T00:59:24;44.45;;;14.52;;
74833;SDS011;63361;52.384;20.930;2023-02-28T01:01:50;28.00;;;11.13;;
74833;SDS011;63361;52.384;20.930;2023-02-28T01:04:15;31.37;;;11.90;;
74833;SDS011;63361;52.384;20.930;2023-02-28T01:06:41;35.85;;;12.23;;
74833;SDS011;63361;52.384;20.930;2023-02-28T01:09:07;28.07;;;11.77;;
74833;SDS011;63361;52.384;20.930;2023-02-28T01:11:33;35.15;;;11.68;;
74833;SDS011;63361;52.384;20.930;2023-02-28T01:13:59;25.55;;;10.48;;
74833;SDS011;63361;52.384;20.930;2023-02-28T01:16:25;32.37;;;11.30;;
74833;SDS011;63361;52.384;20.930;2023-02-28T01:18:50;24.30;;;10.68;;
74833;SDS011;63361;52.384;20.930;2023-02-28T01:21:16;25.40;;;10.23;;
74833;SDS011;63361;52.384;20.930;2023-02-28T01:23:43;28.50;;;10.80;;
74833;SDS011;63361;52.384;20.930;2023-02-28T01:26:10;35.88;;;13.15;;
74833;SDS011;63361;52.384;20.930;2023-02-28T01:28:38;38.53;;;16.13;;
74833;SDS011;63361;52.384;20.930;2023-02-28T01:31:04;44.53;;;15.18;;
74833;SDS011;63361;52.384;20.930;2023-02-28T01:33:29;49.00;;;17.67;;
74833;SDS011;63361;52.384;20.930;2023-02-28T01:36:01;48.83;;;18.53;;
74833;SDS011;63361;52.384;20.930;2023-02-28T01:38:31;55.65;;;19.33;;
74833;SDS011;63361;52.384;20.930;2023-02-28T01:40:57;52.10;;;17.00;;
74833;SDS011;63361;52.384;20.930;2023-02-28T01:43:27;40.23;;;15.20;;
74833;SDS011;63361;52.384;20.930;2023-02-28T01:45:54;42.58;;;16.08;;
74833;SDS011;63361;52.384;20.930;2023-02-28T01:48:21;38.08;;;15.55;;
74833;SDS011;63361;52.384;20.930;2023-02-28T01:50:51;41.47;;;15.23;;
74833;SDS011;63361;52.384;20.930;2023-02-28T01:53:18;39.97;;;16.80;;
74833;SDS011;63361;52.384;20.930;2023-02-28T01:55:48;42.30;;;16.23;;
74833;SDS011;63361;52.384;20.930;2023-02-28T01:58:16;40.28;;;14.20;;
74833;SDS011;63361;52.384;20.930;2023-02-28T02:00:42;43.10;;;15.25;;
74833;SDS011;63361;52.384;20.930;2023-02-28T02:03:08;35.70;;;14.77;;
74833;SDS011;63361;52.384;20.930;2023-02-28T02:05:38;37.33;;;13.90;;
74833;SDS011;63361;52.384;20.930;2023-02-28T02:08:05;32.53;;;14.30;;
74833;SDS011;63361;52.384;20.930;2023-02-28T02:10:39;36.97;;;14.13;;
74833;SDS011;63361;52.384;20.930;2023-02-28T02:19:26;35.92;;;13.30;;
74833;SDS011;63361;52.384;20.930;2023-02-28T02:36:19;47.03;;;13.70;;
74833;SDS011;63361;52.384;20.930;2023-02-28T02:38:51;39.53;;;13.98;;
74833;SDS011;63361;52.384;20.930;2023-02-28T02:41:33;43.60;;;14.53;;
74833;SDS011;63361;52.384;20.930;2023-02-28T02:44:06;41.47;;;15.18;;
74833;SDS011;63361;52.384;20.930;2023-02-28T02:46:47;41.55;;;15.70;;
74833;SDS011;63361;52.384;20.930;2023-02-28T02:49:18;45.25;;;15.88;;
74833;SDS011;63361;52.384;20.930;2023-02-28T02:51:57;43.55;;;15.68;;
74833;SDS011;63361;52.384;20.930;2023-02-28T02:54:29;41.43;;;16.33;;
74833;SDS011;63361;52.384;20.930;2023-02-28T02:56:58;46.55;;;16.65;;
74833;SDS011;63361;52.384;20.930;2023-02-28T02:59:28;44.92;;;16.20;;
74833;SDS011;63361;52.384;20.930;2023-02-28T03:01:56;37.67;;;15.13;;
74833;SDS011;63361;52.384;20.930;2023-02-28T03:04:25;35.90;;;14.05;;
74833;SDS011;63361;52.384;20.930;2023-02-28T03:06:55;28.67;;;11.97;;
74833;SDS011;63361;52.384;20.930;2023-02-28T03:09:21;52.25;;;13.50;;
74833;SDS011;63361;52.384;20.930;2023-02-28T03:11:47;28.30;;;11.73;;
74833;SDS011;63361;52.384;20.930;2023-02-28T03:27:07;34.63;;;12.03;;
74833;SDS011;63361;52.384;20.930;2023-02-28T03:29:43;30.67;;;13.70;;
74833;SDS011;63361;52.384;20.930;2023-02-28T03:34:58;34.47;;;13.30;;
74833;SDS011;63361;52.384;20.930;2023-02-28T03:37:30;31.73;;;11.55;;
74833;SDS011;63361;52.384;20.930;2023-02-28T03:40:02;36.47;;;12.77;;
74833;SDS011;63361;52.384;20.930;2023-02-28T03:42:34;35.40;;;12.88;;
74833;SDS011;63361;52.384;20.930;2023-02-28T03:45:08;36.20;;;12.57;;
74833;SDS011;63361;52.384;20.930;2023-02-28T03:47:49;33.33;;;12.40;;
74833;SDS011;63361;52.384;20.930;2023-02-28T03:50:37;53.15;;;15.70;;
74833;SDS011;63361;52.384;20.930;2023-02-28T03:55:40;33.00;;;13.25;;
74833;SDS011;63361;52.384;20.930;2023-02-28T03:58:23;32.88;;;13.05;;
74833;SDS011;63361;52.384;20.930;2023-02-28T04:00:58;32.25;;;13.05;;
74833;SDS011;63361;52.384;20.930;2023-02-28T04:03:33;34.83;;;13.27;;
74833;SDS011;63361;52.384;20.930;2023-02-28T04:05:59;32.27;;;13.00;;
74833;SDS011;63361;52.384;20.930;2023-02-28T04:08:25;34.30;;;13.05;;
74833;SDS011;63361;52.384;20.930;2023-02-28T04:10:58;31.27;;;11.97;;
74833;SDS011;63361;52.384;20.930;2023-02-28T04:13:28;34.53;;;12.73;;
74833;SDS011;63361;52.384;20.930;2023-02-28T04:15:53;29.97;;;13.03;;
74833;SDS011;63361;52.384;20.930;2023-02-28T04:18:19;28.87;;;12.57;;
74833;SDS011;63361;52.384;20.930;2023-02-28T04:20:44;39.03;;;14.93;;
74833;SDS011;63361;52.384;20.930;2023-02-28T04:23:09;34.00;;;13.10;;
74833;SDS011;63361;52.384;20.930;2023-02-28T04:25:34;35.13;;;14.13;;
74833;SDS011;63361;52.384;20.930;2023-02-28T04:28:00;33.97;;;13.93;;
74833;SDS011;63361;52.384;20.930;2023-02-28T04:30:25;42.83;;;14.73;;
74833;SDS011;63361;52.384;20.930;2023-02-28T04:32:50;82.70;;;23.53;;
74833;SDS011;63361;52.384;20.930;2023-02-28T04:35:16;95.10;;;26.55;;
74833;SDS011;63361;52.384;20.930;2023-02-28T04:37:41;52.70;;;18.70;;
74833;SDS011;63361;52.384;20.930;2023-02-28T04:40:06;50.37;;;14.17;;
74833;SDS011;63361;52.384;20.930;2023-02-28T04:42:32;38.90;;;13.80;;
74833;SDS011;63361;52.384;20.930;2023-02-28T04:45:01;30.07;;;13.17;;
74833;SDS011;63361;52.384;20.930;2023-02-28T04:47:27;35.28;;;13.73;;
74833;SDS011;63361;52.384;20.930;2023-02-28T04:49:53;34.07;;;14.10;;
74833;SDS011;63361;52.384;20.930;2023-02-28T04:52:18;37.07;;;14.20;;
74833;SDS011;63361;52.384;20.930;2023-02-28T04:54:43;37.85;;;15.38;;
74833;SDS011;63361;52.384;20.930;2023-02-28T04:57:09;37.73;;;14.93;;
74833;SDS011;63361;52.384;20.930;2023-02-28T04:59:34;33.07;;;13.63;;
74833;SDS011;63361;52.384;20.930;2023-02-28T05:01:59;34.00;;;14.57;;
74833;SDS011;63361;52.384;20.930;2023-02-28T05:04:25;37.70;;;14.13;;
74833;SDS011;63361;52.384;20.930;2023-02-28T05:06:50;35.27;;;14.20;;
74833;SDS011;63361;52.384;20.930;2023-02-28T05:09:15;33.93;;;12.57;;
74833;SDS011;63361;52.384;20.930;2023-02-28T05:11:41;34.30;;;13.77;;
74833;SDS011;63361;52.384;20.930;2023-02-28T05:14:09;29.33;;;12.75;;
74833;SDS011;63361;52.384;20.930;2023-02-28T05:16:36;31.30;;;13.53;;
74833;SDS011;63361;52.384;20.930;2023-02-28T05:19:02;30.40;;;12.82;;
74833;SDS011;63361;52.384;20.930;2023-02-28T05:21:31;32.47;;;13.70;;
74833;SDS011;63361;52.384;20.930;2023-02-28T05:23:59;36.53;;;14.27;;
74833;SDS011;63361;52.384;20.930;2023-02-28T05:26:29;35.25;;;13.00;;
74833;SDS011;63361;52.384;20.930;2023-02-28T05:28:55;34.35;;;13.52;;
74833;SDS011;63361;52.384;20.930;2023-02-28T05:31:21;34.05;;;14.02;;
74833;SDS011;63361;52.384;20.930;2023-02-28T05:33:46;38.53;;;14.73;;
74833;SDS011;63361;52.384;20.930;2023-02-28T05:36:12;36.70;;;13.70;;
74833;SDS011;63361;52.384;20.930;2023-02-28T05:38:37;39.67;;;14.03;;
74833;SDS011;63361;52.384;20.930;2023-02-28T05:41:07;34.60;;;14.17;;
74833;SDS011;63361;52.384;20.930;2023-02-28T05:43:34;33.97;;;13.82;;
74833;SDS011;63361;52.384;20.930;2023-02-28T05:46:02;37.17;;;13.93;;
74833;SDS011;63361;52.384;20.930;2023-02-28T05:48:29;36.10;;;14.73;;
74833;SDS011;63361;52.384;20.930;2023-02-28T05:50:54;32.50;;;13.97;;
74833;SDS011;63361;52.384;20.930;2023-02-28T05:53:21;32.70;;;13.73;;
74833;SDS011;63361;52.384;20.930;2023-02-28T05:55:47;31.70;;;13.80;;
74833;SDS011;63361;52.384;20.930;2023-02-28T05:58:12;37.15;;;14.15;;
74833;SDS011;63361;52.384;20.930;2023-02-28T06:00:37;32.20;;;13.00;;
74833;SDS011;63361;52.384;20.930;2023-02-28T06:03:03;31.40;;;11.40;;
74833;SDS011;63361;52.384;20.930;2023-02-28T06:05:28;30.17;;;12.80;;
74833;SDS011;63361;52.384;20.930;2023-02-28T06:07:54;33.70;;;14.03;;
74833;SDS011;63361;52.384;20.930;2023-02-28T06:10:19;34.27;;;13.70;;
74833;SDS011;63361;52.384;20.930;2023-02-28T06:12:44;35.77;;;13.73;;
74833;SDS011;63361;52.384;20.930;2023-02-28T06:15:13;38.57;;;15.27;;
74833;SDS011;63361;52.384;20.930;2023-02-28T06:17:40;36.50;;;14.68;;
74833;SDS011;63361;52.384;20.930;2023-02-28T06:20:07;33.55;;;15.05;;
74833;SDS011;63361;52.384;20.930;2023-02-28T06:22:34;37.70;;;14.77;;
74833;SDS011;63361;52.384;20.930;2023-02-28T06:25:01;37.28;;;15.90;;
74833;SDS011;63361;52.384;20.930;2023-02-28T06:27:26;39.72;;;14.65;;
74833;SDS011;63361;52.384;20.930;2023-02-28T06:29:53;34.83;;;14.80;;
74833;SDS011;63361;52.384;20.930;2023-02-28T06:32:20;31.10;;;13.50;;
74833;SDS011;63361;52.384;20.930;2023-02-28T06:34:46;37.15;;;14.02;;
74833;SDS011;63361;52.384;20.930;2023-02-28T06:37:12;34.20;;;14.87;;
74833;SDS011;63361;52.384;20.930;2023-02-28T06:39:37;37.58;;;13.52;;
74833;SDS011;63361;52.384;20.930;2023-02-28T06:42:02;31.20;;;13.93;;
74833;SDS011;63361;52.384;20.930;2023-02-28T06:44:28;33.17;;;13.87;;
74833;SDS011;63361;52.384;20.930;2023-02-28T06:47:00;32.63;;;13.82;;
74833;SDS011;63361;52.384;20.930;2023-02-28T06:49:30;38.47;;;16.25;;
74833;SDS011;63361;52.384;20.930;2023-02-28T06:51:57;45.67;;;17.58;;
74833;SDS011;63361;52.384;20.930;2023-02-28T06:54:22;38.63;;;15.60;;
74833;SDS011;63361;52.384;20.930;2023-02-28T06:56:47;38.70;;;16.57;;
74833;SDS011;63361;52.384;20.930;2023-02-28T06:59:13;42.53;;;17.07;;
74833;SDS011;63361;52.384;20.930;2023-02-28T07:01:39;37.57;;;16.70;;
74833;SDS011;63361;52.384;20.930;2023-02-28T07:04:05;39.77;;;17.27;;
74833;SDS011;63361;52.384;20.930;2023-02-28T07:06:31;40.53;;;19.77;;
74833;SDS011;63361;52.384;20.930;2023-02-28T07:08:57;36.47;;;17.30;;
74833;SDS011;63361;52.384;20.930;2023-02-28T07:11:23;36.87;;;18.43;;
74833;SDS011;63361;52.384;20.930;2023-02-28T07:13:50;39.42;;;17.63;;
74833;SDS011;63361;52.384;20.930;2023-02-28T07:16:16;38.92;;;18.25;;
74833;SDS011;63361;52.384;20.930;2023-02-28T07:18:42;39.83;;;16.37;;
74833;SDS011;63361;52.384;20.930;2023-02-28T07:21:08;44.37;;;19.77;;
74833;SDS011;63361;52.384;20.930;2023-02-28T07:23:37;29.80;;;12.75;;
74833;SDS011;63361;52.384;20.930;2023-02-28T07:26:04;29.48;;;12.35;;
74833;SDS011;63361;52.384;20.930;2023-02-28T07:28:30;27.23;;;11.20;;
74833;SDS011;63361;52.384;20.930;2023-02-28T07:30:55;31.92;;;12.85;;
74833;SDS011;63361;52.384;20.930;2023-02-28T07:33:21;35.73;;;15.03;;
74833;SDS011;63361;52.384;20.930;2023-02-28T07:35:46;28.03;;;13.50;;
74833;SDS011;63361;52.384;20.930;2023-02-28T07:38:11;29.00;;;13.50;;
74833;SDS011;63361;52.384;20.930;2023-02-28T07:40:38;29.65;;;15.73;;
74833;SDS011;63361;52.384;20.930;2023-02-28T07:43:04;32.53;;;16.70;;
74833;SDS011;63361;52.384;20.930;2023-02-28T07:45:29;33.13;;;18.20;;
74833;SDS011;63361;52.384;20.930;2023-02-28T07:47:57;11.50;;;6.65;;
74833;SDS011;63361;52.384;20.930;2023-02-28T07:50:23;11.30;;;6.27;;
74833;SDS011;63361;52.384;20.930;2023-02-28T07:52:48;12.05;;;6.47;;
74833;SDS011;63361;52.384;20.930;2023-02-28T07:55:14;10.83;;;5.23;;
74833;SDS011;63361;52.384;20.930;2023-02-28T07:57:40;12.93;;;6.22;;
74833;SDS011;63361;52.384;20.930;2023-02-28T08:00:07;12.57;;;5.83;;
74833;SDS011;63361;52.384;20.930;2023-02-28T08:02:34;14.07;;;7.05;;
74833;SDS011;63361;52.384;20.930;2023-02-28T08:05:00;10.47;;;5.47;;
74833;SDS011;63361;52.384;20.930;2023-02-28T08:07:26;11.82;;;6.15;;
74833;SDS011;63361;52.384;20.930;2023-02-28T08:09:51;12.30;;;6.07;;
74833;SDS011;63361;52.384;20.930;2023-02-28T08:12:17;10.97;;;5.10;;
74833;SDS011;63361;52.384;20.930;2023-02-28T08:14:42;11.37;;;6.57;;
74833;SDS011;63361;52.384;20.930;2023-02-28T08:17:08;11.87;;;5.17;;
74833;SDS011;63361;52.384;20.930;2023-02-28T08:19:34;14.57;;;5.55;;
74833;SDS011;63361;52.384;20.930;2023-02-28T08:22:00;10.40;;;4.37;;
74833;SDS011;63361;52.384;20.930;2023-02-28T08:24:25;10.67;;;4.87;;
74833;SDS011;63361;52.384;20.930;2023-02-28T08:26:50;11.40;;;4.77;;
74833;SDS011;63361;52.384;20.930;2023-02-28T08:29:16;9.83;;;5.30;;
74833;SDS011;63361;52.384;20.930;2023-02-28T08:31:41;10.17;;;5.07;;
74833;SDS011;63361;52.384;20.930;2023-02-28T08:34:09;14.00;;;7.28;;
74833;SDS011;63361;52.384;20.930;2023-02-28T08:36:37;13.07;;;6.43;;
74833;SDS011;63361;52.384;20.930;2023-02-28T08:39:02;12.82;;;6.63;;
74833;SDS011;63361;52.384;20.930;2023-02-28T08:41:28;11.43;;;5.70;;
74833;SDS011;63361;52.384;20.930;2023-02-28T08:43:54;11.87;;;6.47;;
74833;SDS011;63361;52.384;20.930;2023-02-28T08:46:19;13.80;;;6.20;;
74833;SDS011;63361;52.384;20.930;2023-02-28T08:48:45;11.60;;;6.20;;
74833;SDS011;63361;52.384;20.930;2023-02-28T08:51:12;11.48;;;5.90;;
74833;SDS011;63361;52.384;20.930;2023-02-28T08:53:41;12.75;;;5.75;;
74833;SDS011;63361;52.384;20.930;2023-02-28T08:56:07;12.13;;;6.20;;
74833;SDS011;63361;52.384;20.930;2023-02-28T08:58:34;10.70;;;5.40;;
74833;SDS011;63361;52.384;20.930;2023-02-28T09:01:00;10.18;;;5.55;;
74833;SDS011;63361;52.384;20.930;2023-02-28T09:03:39;13.20;;;7.22;;
74833;SDS011;63361;52.384;20.930;2023-02-28T09:06:06;10.00;;;5.60;;
74833;SDS011;63361;52.384;20.930;2023-02-28T09:08:32;11.80;;;5.97;;
74833;SDS011;63361;52.384;20.930;2023-02-28T09:10:58;10.20;;;5.60;;
74833;SDS011;63361;52.384;20.930;2023-02-28T09:13:24;11.50;;;5.80;;
74833;SDS011;63361;52.384;20.930;2023-02-28T09:15:50;10.32;;;5.20;;
74833;SDS011;63361;52.384;20.930;2023-02-28T09:18:16;12.03;;;6.47;;
74833;SDS011;63361;52.384;20.930;2023-02-28T09:20:42;10.30;;;5.57;;
74833;SDS011;63361;52.384;20.930;2023-02-28T09:23:08;8.95;;;5.22;;
74833;SDS011;63361;52.384;20.930;2023-02-28T09:25:35;11.43;;;6.22;;
74833;SDS011;63361;52.384;20.930;2023-02-28T09:28:00;13.63;;;6.57;;
74833;SDS011;63361;52.384;20.930;2023-02-28T09:30:26;11.87;;;6.17;;
74833;SDS011;63361;52.384;20.930;2023-02-28T09:32:51;9.80;;;5.90;;
74833;SDS011;63361;52.384;20.930;2023-02-28T09:35:23;13.90;;;6.30;;
74833;SDS011;63361;52.384;20.930;2023-02-28T09:37:50;12.43;;;6.38;;
74833;SDS011;63361;52.384;20.930;2023-02-28T09:40:20;14.27;;;7.20;;
74833;SDS011;63361;52.384;20.930;2023-02-28T09:42:48;10.88;;;6.30;;
74833;SDS011;63361;52.384;20.930;2023-02-28T09:45:19;12.03;;;6.03;;
74833;SDS011;63361;52.384;20.930;2023-02-28T09:47:46;12.27;;;6.00;;
74833;SDS011;63361;52.384;20.930;2023-02-28T09:52:51;12.38;;;6.45;;
74833;SDS011;63361;52.384;20.930;2023-02-28T09:55:28;12.30;;;6.25;;
74833;SDS011;63361;52.384;20.930;2023-02-28T09:57:58;12.60;;;6.50;;
74833;SDS011;63361;52.384;20.930;2023-02-28T10:00:33;13.95;;;6.88;;
74833;SDS011;63361;52.384;20.930;2023-02-28T10:05:37;12.67;;;7.03;;
74833;SDS011;63361;52.384;20.930;2023-02-28T10:08:11;12.50;;;6.70;;
74833;SDS011;63361;52.384;20.930;2023-02-28T10:13:15;11.38;;;5.93;;
74833;SDS011;63361;52.384;20.930;2023-02-28T10:15:47;13.00;;;7.57;;
74833;SDS011;63361;52.384;20.930;2023-02-28T10:18:19;13.43;;;6.82;;
74833;SDS011;63361;52.384;20.930;2023-02-28T10:20:49;15.35;;;6.53;;
74833;SDS011;63361;52.384;20.930;2023-02-28T10:23:20;13.23;;;6.93;;
74833;SDS011;63361;52.384;20.930;2023-02-28T10:25:57;15.65;;;7.45;;
74833;SDS011;63361;52.384;20.930;2023-02-28T10:28:24;12.43;;;6.10;;
74833;SDS011;63361;52.384;20.930;2023-02-28T10:30:51;13.30;;;7.13;;
74833;SDS011;63361;52.384;20.930;2023-02-28T10:33:20;12.18;;;6.45;;
74833;SDS011;63361;52.384;20.930;2023-02-28T10:35:48;12.43;;;6.82;;
74833;SDS011;63361;52.384;20.930;2023-02-28T10:38:25;16.23;;;7.40;;
74833;SDS011;63361;52.384;20.930;2023-02-28T10:41:12;12.57;;;6.60;;
74833;SDS011;63361;52.384;20.930;2023-02-28T10:43:40;15.55;;;6.35;;
74833;SDS011;63361;52.384;20.930;2023-02-28T10:51:18;11.33;;;6.87;;
74833;SDS011;63361;52.384;20.930;2023-02-28T10:53:48;13.10;;;6.70;;
74833;SDS011;63361;52.384;20.930;2023-02-28T10:56:21;13.90;;;6.78;;
74833;SDS011;63361;52.384;20.930;2023-02-28T11:01:20;12.70;;;6.97;;
74833;SDS011;63361;52.384;20.930;2023-02-28T11:03:50;15.13;;;7.27;;
74833;SDS011;63361;52.384;20.930;2023-02-28T11:06:26;12.23;;;6.80;;
74833;SDS011;63361;52.384;20.930;2023-02-28T11:08:56;12.85;;;6.07;;
74833;SDS011;63361;52.384;20.930;2023-02-28T11:11:30;11.52;;;6.35;;
74833;SDS011;63361;52.384;20.930;2023-02-28T11:14:06;37.97;;;14.30;;
74833;SDS011;63361;52.384;20.930;2023-02-28T11:16:45;19.50;;;9.10;;
74833;SDS011;63361;52.384;20.930;2023-02-28T11:19:17;12.77;;;7.22;;
74833;SDS011;63361;52.384;20.930;2023-02-28T11:21:48;14.20;;;6.47;;
74833;SDS011;63361;52.384;20.930;2023-02-28T11:24:25;11.90;;;6.00;;
74833;SDS011;63361;52.384;20.930;2023-02-28T11:26:54;12.53;;;6.43;;
74833;SDS011;63361;52.384;20.930;2023-02-28T11:29:22;11.95;;;6.35;;
74833;SDS011;63361;52.384;20.930;2023-02-28T11:34:34;11.45;;;6.15;;
74833;SDS011;63361;52.384;20.930;2023-02-28T11:37:00;10.90;;;5.72;;
74833;SDS011;63361;52.384;20.930;2023-02-28T11:39:29;13.03;;;7.80;;
74833;SDS011;63361;52.384;20.930;2023-02-28T11:42:00;13.35;;;6.88;;
74833;SDS011;63361;52.384;20.930;2023-02-28T11:52:57;12.03;;;5.53;;
74833;SDS011;63361;52.384;20.930;2023-02-28T11:55:39;11.27;;;5.55;;
74833;SDS011;63361;52.384;20.930;2023-02-28T11:58:27;11.98;;;5.70;;
74833;SDS011;63361;52.384;20.930;2023-02-28T12:01:11;11.27;;;5.55;;
74833;SDS011;63361;52.384;20.930;2023-02-28T12:04:07;13.80;;;7.20;;
74833;SDS011;63361;52.384;20.930;2023-02-28T12:11:50;12.13;;;6.25;;
74833;SDS011;63361;52.384;20.930;2023-02-28T12:17:13;13.30;;;6.45;;
74833;SDS011;63361;52.384;20.930;2023-02-28T12:19:50;11.53;;;7.10;;
74833;SDS011;63361;52.384;20.930;2023-02-28T12:28:17;11.52;;;6.00;;
74833;SDS011;63361;52.384;20.930;2023-02-28T12:31:06;12.82;;;5.88;;
74833;SDS011;63361;52.384;20.930;2023-02-28T12:33:43;9.80;;;5.97;;
74833;SDS011;63361;52.384;20.930;2023-02-28T12:36:14;9.77;;;5.45;;
74833;SDS011;63361;52.384;20.930;2023-02-28T12:39:18;10.73;;;5.93;;
74833;SDS011;63361;52.384;20.930;2023-02-28T12:45:13;10.20;;;5.60;;
74833;SDS011;63361;52.384;20.930;2023-02-28T12:47:35;10.93;;;5.47;;
74833;SDS011;63361;52.384;20.930;2023-02-28T12:50:06;11.05;;;5.70;;
74833;SDS011;63361;52.384;20.930;2023-02-28T12:52:59;9.52;;;5.10;;
74833;SDS011;63361;52.384;20.930;2023-02-28T12:55:44;11.32;;;5.30;;
74833;SDS011;63361;52.384;20.930;2023-02-28T12:58:28;11.43;;;5.85;;
74833;SDS011;63361;52.384;20.930;2023-02-28T13:06:44;11.02;;;5.10;;
74833;SDS011;63361;52.384;20.930;2023-02-28T13:09:31;12.23;;;5.97;;
74833;SDS011;63361;52.384;20.930;2023-02-28T13:11:57;9.73;;;5.97;;
74833;SDS011;63361;52.384;20.930;2023-02-28T13:16:56;9.95;;;5.18;;
74833;SDS011;63361;52.384;20.930;2023-02-28T13:19:25;11.63;;;5.32;;
74833;SDS011;63361;52.384;20.930;2023-02-28T13:21:53;9.30;;;5.23;;
74833;SDS011;63361;52.384;20.930;2023-02-28T13:27:59;12.43;;;5.55;;
74833;SDS011;63361;52.384;20.930;2023-02-28T13:33:24;12.38;;;5.22;;
74833;SDS011;63361;52.384;20.930;2023-02-28T13:36:00;10.93;;;5.17;;
74833;SDS011;63361;52.384;20.930;2023-02-28T13:38:39;10.48;;;5.10;;
74833;SDS011;63361;52.384;20.930;2023-02-28T13:46:31;10.73;;;5.47;;
74833;SDS011;63361;52.384;20.930;2023-02-28T14:07:56;11.68;;;5.10;;
74833;SDS011;63361;52.384;20.930;2023-02-28T14:10:30;11.45;;;4.90;;
74833;SDS011;63361;52.384;20.930;2023-02-28T14:13:02;13.85;;;5.70;;
74833;SDS011;63361;52.384;20.930;2023-02-28T14:18:14;10.63;;;5.35;;
74833;SDS011;63361;52.384;20.930;2023-02-28T14:20:48;11.60;;;5.82;;
74833;SDS011;63361;52.384;20.930;2023-02-28T14:23:29;12.63;;;6.40;;
74833;SDS011;63361;52.384;20.930;2023-02-28T14:31:09;10.32;;;5.57;;
74833;SDS011;63361;52.384;20.930;2023-02-28T14:38:52;9.90;;;5.27;;
74833;SDS011;63361;52.384;20.930;2023-02-28T14:41:21;15.20;;;6.45;;
74833;SDS011;63361;52.384;20.930;2023-02-28T14:43:54;12.45;;;5.65;;
74833;SDS011;63361;52.384;20.930;2023-02-28T14:46:22;10.00;;;5.13;;
74833;SDS011;63361;52.384;20.930;2023-02-28T14:48:50;11.98;;;6.03;;
74833;SDS011;63361;52.384;20.930;2023-02-28T14:51:20;13.63;;;5.57;;
74833;SDS011;63361;52.384;20.930;2023-02-28T14:53:48;11.85;;;5.90;;
74833;SDS011;63361;52.384;20.930;2023-02-28T14:56:20;13.65;;;6.10;;
74833;SDS011;63361;52.384;20.930;2023-02-28T14:58:53;10.80;;;4.97;;
74833;SDS011;63361;52.384;20.930;2023-02-28T15:01:21;12.30;;;5.75;;
74833;SDS011;63361;52.384;20.930;2023-02-28T15:03:48;10.80;;;5.78;;
74833;SDS011;63361;52.384;20.930;2023-02-28T15:06:22;28.17;;;9.00;;
74833;SDS011;63361;52.384;20.930;2023-02-28T15:09:05;14.98;;;6.53;;
74833;SDS011;63361;52.384;20.930;2023-02-28T15:11:33;17.07;;;7.00;;
74833;SDS011;63361;52.384;20.930;2023-02-28T15:14:00;15.20;;;5.95;;
74833;SDS011;63361;52.384;20.930;2023-02-28T15:16:29;12.60;;;5.95;;
74833;SDS011;63361;52.384;20.930;2023-02-28T15:19:24;14.82;;;6.75;;
74833;SDS011;63361;52.384;20.930;2023-02-28T15:22:08;13.53;;;5.70;;
74833;SDS011;63361;52.384;20.930;2023-02-28T15:24:42;12.20;;;6.00;;
74833;SDS011;63361;52.384;20.930;2023-02-28T15:27:27;12.27;;;5.95;;
74833;SDS011;63361;52.384;20.930;2023-02-28T15:29:58;12.45;;;5.63;;
74833;SDS011;63361;52.384;20.930;2023-02-28T15:32:29;15.18;;;6.05;;
74833;SDS011;63361;52.384;20.930;2023-02-28T15:37:54;15.70;;;5.78;;
74833;SDS011;63361;52.384;20.930;2023-02-28T15:40:50;11.40;;;5.72;;
74833;SDS011;63361;52.384;20.930;2023-02-28T15:43:24;13.07;;;6.22;;
74833;SDS011;63361;52.384;20.930;2023-02-28T15:46:05;12.27;;;5.63;;
74833;SDS011;63361;52.384;20.930;2023-02-28T15:53:28;14.40;;;6.00;;
74833;SDS011;63361;52.384;20.930;2023-02-28T15:55:59;13.88;;;6.60;;
74833;SDS011;63361;52.384;20.930;2023-02-28T15:58:26;15.43;;;7.00;;
74833;SDS011;63361;52.384;20.930;2023-02-28T16:03:40;15.90;;;6.90;;
74833;SDS011;63361;52.384;20.930;2023-02-28T16:08:57;22.42;;;6.90;;
74833;SDS011;63361;52.384;20.930;2023-02-28T16:11:23;12.67;;;6.70;;
74833;SDS011;63361;52.384;20.930;2023-02-28T16:13:48;16.40;;;6.77;;
74833;SDS011;63361;52.384;20.930;2023-02-28T16:16:19;14.75;;;7.25;;
74833;SDS011;63361;52.384;20.930;2023-02-28T16:18:46;16.10;;;7.57;;
74833;SDS011;63361;52.384;20.930;2023-02-28T16:21:12;17.00;;;8.97;;
74833;SDS011;63361;52.384;20.930;2023-02-28T16:23:37;22.07;;;8.67;;
74833;SDS011;63361;52.384;20.930;2023-02-28T16:26:03;21.10;;;9.33;;
74833;SDS011;63361;52.384;20.930;2023-02-28T16:28:38;24.30;;;10.57;;
74833;SDS011;63361;52.384;20.930;2023-02-28T16:31:05;21.88;;;9.18;;
74833;SDS011;63361;52.384;20.930;2023-02-28T16:33:32;16.85;;;7.40;;
74833;SDS011;63361;52.384;20.930;2023-02-28T16:35:58;21.83;;;8.65;;
74833;SDS011;63361;52.384;20.930;2023-02-28T16:38:24;21.70;;;8.43;;
74833;SDS011;63361;52.384;20.930;2023-02-28T16:40:50;23.20;;;8.73;;
74833;SDS011;63361;52.384;20.930;2023-02-28T16:43:17;21.52;;;9.30;;
74833;SDS011;63361;52.384;20.930;2023-02-28T16:45:46;22.38;;;8.63;;
74833;SDS011;63361;52.384;20.930;2023-02-28T16:48:12;20.97;;;9.50;;
74833;SDS011;63361;52.384;20.930;2023-02-28T16:50:40;23.88;;;9.63;;
74833;SDS011;63361;52.384;20.930;2023-02-28T16:53:05;22.33;;;8.10;;
74833;SDS011;63361;52.384;20.930;2023-02-28T16:55:31;23.55;;;8.88;;